createdAt,value
2022-12-05T00:01:47.274Z,5.60
2022-12-05T00:04:50.450Z,5.70
2022-12-05T00:07:54.959Z,5.70
2022-12-05T00:10:58.100Z,5.70
2022-12-05T00:14:02.492Z,5.70
2022-12-05T00:17:05.848Z,5.80
2022-12-05T00:20:10.604Z,5.70
2022-12-05T00:23:15.182Z,5.60
2022-12-05T00:26:18.749Z,5.60
2022-12-05T00:29:21.949Z,5.70
2022-12-05T00:32:25.052Z,5.70
2022-12-05T00:35:28.188Z,5.70
2022-12-05T00:38:32.707Z,5.80
2022-12-05T00:41:35.968Z,5.80
2022-12-05T00:44:39.108Z,5.80
2022-12-05T00:47:42.313Z,5.80
2022-12-05T00:50:45.448Z,5.80
2022-12-05T00:53:50.726Z,5.80
2022-12-05T00:56:56.330Z,5.80
2022-12-05T00:59:59.704Z,5.80
2022-12-05T01:03:03.061Z,5.80
2022-12-05T01:06:07.095Z,5.80
2022-12-05T01:09:13.955Z,5.80
2022-12-05T01:12:17.119Z,5.70
2022-12-05T01:15:20.322Z,5.80
2022-12-05T01:18:24.398Z,5.70
2022-12-05T01:21:27.807Z,5.60
2022-12-05T01:24:32.557Z,5.70
2022-12-05T01:27:35.711Z,5.70
2022-12-05T01:30:39.999Z,5.60
2022-12-05T01:33:43.141Z,5.60
2022-12-05T01:36:46.605Z,5.70
2022-12-05T01:39:51.512Z,5.70
2022-12-05T01:42:54.806Z,5.70
2022-12-05T01:45:57.958Z,5.70
2022-12-05T01:49:05.928Z,5.70
2022-12-05T01:52:12.880Z,5.70
2022-12-05T01:55:20.259Z,5.70
2022-12-05T01:58:24.645Z,5.60
2022-12-05T02:01:27.844Z,5.60
2022-12-05T02:04:31.201Z,5.70
2022-12-05T02:07:36.208Z,5.70
2022-12-05T02:10:45.337Z,5.70
2022-12-05T02:14:05.900Z,5.70
2022-12-05T02:17:23.508Z,5.70
2022-12-05T02:20:45.688Z,5.60
2022-12-05T02:24:22.305Z,5.60
2022-12-05T02:27:49.512Z,5.60
2022-12-05T02:30:58.709Z,5.60
2022-12-05T02:34:08.184Z,5.50
2022-12-05T02:37:16.054Z,5.60
2022-12-05T02:40:26.217Z,5.50
2022-12-05T02:43:37.137Z,5.50
2022-12-05T02:46:43.273Z,5.50
2022-12-05T02:49:46.703Z,5.50
2022-12-05T02:52:52.737Z,5.50
2022-12-05T02:55:56.348Z,5.50
2022-12-05T02:58:59.463Z,5.50
2022-12-05T03:02:04.336Z,5.50
2022-12-05T03:05:20.507Z,5.40
2022-12-05T03:08:26.832Z,5.40
2022-12-05T03:11:35.779Z,5.50
2022-12-05T03:14:42.851Z,5.50
2022-12-05T03:17:59.308Z,5.50
2022-12-05T03:21:09.552Z,5.60
2022-12-05T03:24:15.779Z,5.60
2022-12-05T03:27:26.902Z,5.60
2022-12-05T03:30:32.513Z,5.60
2022-12-05T03:33:42.977Z,5.60
2022-12-05T03:36:50.922Z,5.60
2022-12-05T03:40:05.607Z,5.60
2022-12-05T03:43:13.757Z,5.60
2022-12-05T03:46:23.610Z,5.60
2022-12-05T03:49:35.749Z,5.60
2022-12-05T03:53:11.481Z,5.60
2022-12-05T03:56:11.844Z,5.60
2022-12-05T03:59:20.322Z,5.50
2022-12-05T04:02:29.412Z,5.40
2022-12-05T04:05:40.332Z,5.40
2022-12-05T04:08:51.359Z,5.40
2022-12-05T04:11:58.804Z,5.20
2022-12-05T04:15:07.190Z,5.20
2022-12-05T04:18:10.911Z,5.20
2022-12-05T04:21:35.277Z,5.30
2022-12-05T04:24:55.899Z,5.20
2022-12-05T04:28:06.832Z,5.20
2022-12-05T04:31:13.022Z,5.20
2022-12-05T04:34:17.754Z,5.30
2022-12-05T04:37:26.385Z,5.40
2022-12-05T04:40:34.133Z,5.30
2022-12-05T04:43:41.948Z,5.30
2022-12-05T04:46:47.199Z,5.40
2022-12-05T04:49:53.649Z,5.30
2022-12-05T04:53:00.941Z,5.30
2022-12-05T04:56:06.490Z,5.30
2022-12-05T04:59:09.577Z,5.40
2022-12-05T05:02:16.594Z,5.40
2022-12-05T05:05:21.853Z,5.40
2022-12-05T05:08:29.992Z,5.40
2022-12-05T05:11:35.690Z,5.40
2022-12-05T05:14:38.851Z,5.50
2022-12-05T05:17:42.101Z,5.50
2022-12-05T05:20:45.432Z,5.50
2022-12-05T05:23:50.144Z,5.60
2022-12-05T05:26:57.242Z,5.60
2022-12-05T05:30:00.812Z,5.60
2022-12-05T05:33:03.928Z,5.70
2022-12-05T05:36:08.435Z,5.60
2022-12-05T05:39:16.708Z,5.60
2022-12-05T05:42:19.897Z,5.70
2022-12-05T05:45:23.264Z,5.70
2022-12-05T05:48:26.355Z,5.60
2022-12-05T05:51:30.414Z,5.70
2022-12-05T05:54:34.927Z,5.70
2022-12-05T05:57:38.164Z,5.70
2022-12-05T06:00:41.248Z,5.70
2022-12-05T06:03:45.172Z,5.80
2022-12-05T06:06:48.335Z,5.80
2022-12-05T06:09:52.839Z,5.80
2022-12-05T06:12:55.922Z,5.90
2022-12-05T06:15:59.155Z,5.90
2022-12-05T06:19:02.341Z,5.90
2022-12-05T06:22:05.463Z,5.90
2022-12-05T06:25:10.867Z,6.00
2022-12-05T06:28:13.945Z,6.10
2022-12-05T06:31:20.776Z,6.10
2022-12-05T06:34:23.920Z,6.20
2022-12-05T06:37:27.021Z,6.10
2022-12-05T06:40:31.554Z,6.10
2022-12-05T06:43:35.151Z,6.00
2022-12-05T06:46:38.435Z,6.00
2022-12-05T06:49:41.535Z,6.10
2022-12-05T06:52:44.666Z,6.00
2022-12-05T06:55:58.450Z,5.90
2022-12-05T06:59:01.727Z,5.90
2022-12-05T07:02:08.199Z,6.00
2022-12-05T07:05:12.482Z,6.00
2022-12-05T07:08:15.671Z,6.00
2022-12-05T07:11:20.331Z,6.00
2022-12-05T07:17:46.500Z,6.00
2022-12-05T07:21:13.695Z,6.00
2022-12-05T07:24:17.240Z,6.10
2022-12-05T07:27:26.883Z,6.20
2022-12-05T07:30:30.929Z,6.00
2022-12-05T07:33:34.318Z,6.10
2022-12-05T07:36:37.660Z,6.10
2022-12-05T07:39:40.927Z,6.20
2022-12-05T07:42:45.453Z,6.20
2022-12-05T07:45:48.637Z,6.20
2022-12-05T07:48:52.856Z,6.20
2022-12-05T07:51:55.981Z,6.20
2022-12-05T07:54:59.448Z,6.30
2022-12-05T07:58:03.939Z,6.30
2022-12-05T08:01:08.835Z,6.40
2022-12-05T08:04:15.218Z,6.40
2022-12-05T08:07:18.757Z,6.40
2022-12-05T08:10:21.860Z,6.40
2022-12-05T08:13:26.360Z,6.50
2022-12-05T08:16:32.084Z,6.50
2022-12-05T08:19:35.284Z,6.60
2022-12-05T08:22:38.442Z,6.70
2022-12-05T08:25:41.579Z,6.80
2022-12-05T08:28:46.603Z,6.70
2022-12-05T08:31:52.045Z,6.70
2022-12-05T08:34:55.276Z,6.80
2022-12-05T08:37:58.387Z,6.90
2022-12-05T08:41:03.191Z,7.00
2022-12-05T08:44:08.948Z,6.80
2022-12-05T08:47:12.389Z,6.90
2022-12-05T08:50:15.535Z,7.00
2022-12-05T08:53:18.981Z,6.80
2022-12-05T08:56:26.881Z,7.00
2022-12-05T08:59:32.070Z,7.10
2022-12-05T09:02:35.301Z,7.20
2022-12-05T09:05:38.772Z,7.40
2022-12-05T09:08:42.907Z,7.30
2022-12-05T09:11:49.184Z,7.00
2022-12-05T09:14:53.936Z,6.90
2022-12-05T09:17:57.164Z,6.70
2022-12-05T09:21:00.258Z,6.50
2022-12-05T09:24:03.646Z,6.60
2022-12-05T09:27:06.770Z,6.60
2022-12-05T09:30:12.291Z,6.50
2022-12-05T09:33:15.428Z,6.50
2022-12-05T09:36:21.223Z,6.60
2022-12-05T09:39:24.726Z,6.70
2022-12-05T09:42:40.077Z,6.90
2022-12-05T09:45:52.749Z,6.90
2022-12-05T09:48:58.434Z,7.00
2022-12-05T09:52:03.397Z,7.10
2022-12-05T09:55:12.125Z,7.20
2022-12-05T09:58:29.986Z,7.30
2022-12-05T10:01:41.703Z,7.30
2022-12-05T10:05:00.598Z,7.30
2022-12-05T10:08:11.521Z,7.20
2022-12-05T10:11:19.788Z,7.10
2022-12-05T10:14:36.204Z,7.10
2022-12-05T10:17:43.725Z,7.10
2022-12-05T10:20:51.381Z,7.10
2022-12-05T10:23:58.806Z,7.20
2022-12-05T10:27:06.465Z,7.10
2022-12-05T10:30:16.177Z,7.10
2022-12-05T10:33:23.553Z,7.20
2022-12-05T10:36:27.136Z,7.30
2022-12-05T10:39:30.331Z,7.40
2022-12-05T10:42:36.722Z,7.40
2022-12-05T10:45:44.223Z,7.50
2022-12-05T10:48:48.710Z,7.70
2022-12-05T10:51:52.537Z,8.10
2022-12-05T10:55:01.723Z,8.30
2022-12-05T10:58:17.279Z,8.10
2022-12-05T11:01:21.216Z,8.20
2022-12-05T11:04:29.758Z,8.20
2022-12-05T11:07:36.538Z,8.10
2022-12-05T11:10:44.090Z,8.00
2022-12-05T11:13:54.952Z,8.00
2022-12-05T11:17:00.294Z,8.00
2022-12-05T11:20:14.613Z,8.10
2022-12-05T11:23:24.500Z,8.20
2022-12-05T11:26:36.557Z,8.20
2022-12-05T11:29:41.212Z,8.20
2022-12-05T11:32:44.352Z,8.20
2022-12-05T11:35:50.322Z,8.10
2022-12-05T11:38:54.389Z,8.10
2022-12-05T11:42:10.278Z,7.90
2022-12-05T11:45:37.433Z,7.90
2022-12-05T11:49:01.435Z,7.90
2022-12-05T11:52:23.178Z,7.90
2022-12-05T11:55:30.509Z,8.00
2022-12-05T11:58:47.798Z,8.10
2022-12-05T12:02:00.006Z,8.30
2022-12-05T12:05:15.173Z,8.40
2022-12-05T12:08:25.751Z,8.50
2022-12-05T12:11:35.493Z,8.70
2022-12-05T12:14:47.652Z,8.70
2022-12-05T12:18:01.507Z,8.80
2022-12-05T12:21:17.573Z,8.70
2022-12-05T12:24:28.643Z,8.50
2022-12-05T12:27:45.000Z,8.50
2022-12-05T12:31:03.717Z,8.30
2022-12-05T12:34:22.912Z,8.20
2022-12-05T12:37:36.069Z,8.20
2022-12-05T12:40:49.500Z,8.20
2022-12-05T12:44:04.602Z,8.00
2022-12-05T12:47:16.537Z,7.80
2022-12-05T12:50:22.890Z,7.70
2022-12-05T12:53:42.400Z,7.50
2022-12-05T12:56:55.114Z,7.50
2022-12-05T13:00:06.207Z,7.20
2022-12-05T13:03:14.369Z,7.20
2022-12-05T13:06:24.925Z,7.20
2022-12-05T13:09:32.166Z,7.20
2022-12-05T13:12:41.100Z,7.20
2022-12-05T13:15:47.987Z,7.20
2022-12-05T13:18:51.473Z,7.20
2022-12-05T13:21:57.169Z,7.20
2022-12-05T13:25:00.616Z,7.40
2022-12-05T13:28:08.399Z,7.50
2022-12-05T13:31:16.771Z,7.50
2022-12-05T13:34:47.672Z,7.60
2022-12-05T13:38:08.145Z,7.60
2022-12-05T13:41:28.719Z,7.60
2022-12-05T13:44:40.646Z,7.60
2022-12-05T13:47:56.736Z,7.60
2022-12-05T13:51:04.944Z,7.70
2022-12-05T13:54:14.833Z,7.70
2022-12-05T13:57:46.952Z,7.50
2022-12-05T14:00:51.931Z,7.20
2022-12-05T14:03:57.418Z,7.20
2022-12-05T14:07:00.627Z,7.20
2022-12-05T14:10:03.836Z,7.20
2022-12-05T14:13:42.039Z,7.30
2022-12-05T14:16:47.671Z,7.30
2022-12-05T14:20:21.099Z,7.20
2022-12-05T14:23:51.848Z,7.10
2022-12-05T14:27:07.320Z,6.80
2022-12-05T14:30:22.700Z,6.80
2022-12-05T14:33:27.269Z,6.90
2022-12-05T14:36:31.737Z,6.90
2022-12-05T14:39:41.872Z,6.90
2022-12-05T14:42:54.153Z,6.90
2022-12-05T14:46:02.056Z,6.90
2022-12-05T14:49:41.703Z,6.90
2022-12-05T14:53:19.751Z,7.00
2022-12-05T14:56:24.622Z,7.00
2022-12-05T14:59:31.757Z,7.10
2022-12-05T15:02:39.707Z,7.10
2022-12-05T15:05:45.400Z,7.20
2022-12-05T15:08:51.279Z,7.10
2022-12-05T15:11:54.749Z,7.00
2022-12-05T15:15:07.931Z,7.00
2022-12-05T15:18:20.881Z,7.00
2022-12-05T15:21:32.054Z,7.00
2022-12-05T15:24:39.719Z,7.00
2022-12-05T15:27:52.002Z,6.90
2022-12-05T15:30:57.118Z,6.90
2022-12-05T15:34:06.609Z,6.80
2022-12-05T15:37:16.983Z,6.80
2022-12-05T15:40:21.994Z,6.70
2022-12-05T15:43:32.004Z,6.60
2022-12-05T15:46:36.840Z,6.60
2022-12-05T15:49:40.363Z,6.60
2022-12-05T15:52:48.380Z,6.60
2022-12-05T15:55:56.319Z,6.60
2022-12-05T15:59:05.774Z,6.70
2022-12-05T16:02:17.288Z,6.70
2022-12-05T16:05:23.755Z,6.70
2022-12-05T16:08:35.627Z,6.60
2022-12-05T16:11:38.795Z,6.70
2022-12-05T16:18:07.175Z,6.70
2022-12-05T16:21:38.779Z,6.70
2022-12-05T16:24:48.430Z,6.80
2022-12-05T16:27:59.357Z,6.80
2022-12-05T16:31:05.325Z,6.80
2022-12-05T16:34:16.416Z,6.80
2022-12-05T16:37:24.012Z,6.80
2022-12-05T16:40:28.745Z,6.80
2022-12-05T16:43:45.918Z,6.80
2022-12-05T16:46:49.551Z,6.80
2022-12-05T16:49:54.269Z,6.70
2022-12-05T16:53:16.019Z,6.80
2022-12-05T16:56:24.183Z,6.80
2022-12-05T16:59:33.294Z,6.90
2022-12-05T17:02:36.686Z,6.90
2022-12-05T17:05:40.983Z,7.00
2022-12-05T17:08:44.949Z,7.00
2022-12-05T17:11:52.658Z,7.00
2022-12-05T17:14:56.673Z,7.00
2022-12-05T17:18:01.778Z,7.00
2022-12-05T17:21:05.634Z,6.90
2022-12-05T17:24:10.298Z,7.00
2022-12-05T17:27:15.891Z,7.00
2022-12-05T17:30:20.344Z,7.00
2022-12-05T17:33:24.438Z,7.00
2022-12-05T17:36:28.971Z,7.00
2022-12-05T17:39:32.597Z,7.00
2022-12-05T17:42:38.131Z,7.00
2022-12-05T17:45:42.194Z,7.00
2022-12-05T17:48:46.014Z,7.00
2022-12-05T17:52:20.411Z,7.00
2022-12-05T17:55:24.137Z,7.00
2022-12-05T17:58:29.032Z,7.10
2022-12-05T18:01:32.689Z,7.00
2022-12-05T18:04:37.306Z,7.00
2022-12-05T18:07:42.430Z,7.00
2022-12-05T18:10:46.852Z,7.00
2022-12-05T18:13:55.328Z,7.00
2022-12-05T18:16:59.101Z,7.00
2022-12-05T18:20:04.042Z,7.00
2022-12-05T18:23:08.182Z,7.00
2022-12-05T18:26:12.625Z,7.00
2022-12-05T18:29:21.076Z,7.10
2022-12-05T18:32:25.954Z,7.20
2022-12-05T18:35:43.028Z,7.20
2022-12-05T18:38:53.512Z,7.20
2022-12-05T18:41:57.948Z,7.10
2022-12-05T18:45:05.189Z,7.20
2022-12-05T18:48:31.485Z,7.20
2022-12-05T18:51:33.782Z,7.20
2022-12-05T18:54:50.744Z,7.10
2022-12-05T18:58:02.085Z,7.00
2022-12-05T19:01:11.871Z,7.00
2022-12-05T19:04:18.217Z,7.00
2022-12-05T19:07:22.411Z,7.00
2022-12-05T19:10:26.669Z,7.00
2022-12-05T19:13:31.364Z,7.00
2022-12-05T19:16:37.545Z,7.10
2022-12-05T19:19:42.006Z,7.00
2022-12-05T19:22:47.895Z,7.10
2022-12-05T19:25:55.454Z,7.10
2022-12-05T19:28:59.866Z,7.20
2022-12-05T19:32:07.509Z,7.20
2022-12-05T19:35:11.983Z,7.00
2022-12-05T19:38:16.479Z,7.00
2022-12-05T19:41:23.144Z,7.00
2022-12-05T19:44:28.134Z,7.00
2022-12-05T19:47:34.668Z,7.10
2022-12-05T19:50:40.944Z,7.10
2022-12-05T19:53:46.597Z,7.10
2022-12-05T19:56:54.478Z,7.00
2022-12-05T19:59:59.075Z,7.00
2022-12-05T20:03:11.807Z,7.10
2022-12-05T20:06:18.871Z,7.10
2022-12-05T20:09:24.904Z,7.00
2022-12-05T20:12:29.769Z,7.00
2022-12-05T20:15:36.713Z,7.00
2022-12-05T20:18:43.813Z,7.00
2022-12-05T20:21:48.661Z,7.10
2022-12-05T20:24:55.153Z,7.00
2022-12-05T20:27:59.555Z,7.10
2022-12-05T20:31:10.187Z,7.10
2022-12-05T20:34:17.522Z,7.10
2022-12-05T20:37:22.227Z,7.20
2022-12-05T20:40:27.225Z,7.20
2022-12-05T20:43:34.611Z,7.10
2022-12-05T20:46:39.522Z,7.10
2022-12-05T20:49:45.318Z,7.20
2022-12-05T20:52:49.740Z,7.10
2022-12-05T20:55:54.021Z,7.10
2022-12-05T20:59:00.287Z,7.10
2022-12-05T21:02:05.572Z,7.10
2022-12-05T21:05:13.567Z,7.10
2022-12-05T21:08:17.342Z,7.20
2022-12-05T21:11:24.364Z,7.20
2022-12-05T21:14:27.844Z,7.20
2022-12-05T21:17:31.311Z,7.30
2022-12-05T21:20:41.787Z,7.20
2022-12-05T21:23:46.740Z,7.20
2022-12-05T21:26:51.284Z,7.20
2022-12-05T21:29:54.995Z,7.10
2022-12-05T21:32:58.174Z,7.10
2022-12-05T21:36:02.749Z,7.10
2022-12-05T21:39:07.078Z,7.00
2022-12-05T21:42:10.306Z,7.00
2022-12-05T21:45:13.440Z,7.00
2022-12-05T21:48:16.576Z,7.00
2022-12-05T21:51:21.336Z,7.00
2022-12-05T21:54:24.480Z,7.10
2022-12-05T21:57:32.101Z,7.10
2022-12-05T22:00:35.231Z,7.20
2022-12-05T22:03:38.470Z,7.20
2022-12-05T22:06:42.944Z,7.10
2022-12-05T22:09:46.063Z,7.10
2022-12-05T22:12:49.286Z,7.10
2022-12-05T22:15:52.427Z,7.10
2022-12-05T22:18:55.573Z,7.00
2022-12-05T22:22:00.055Z,7.10
2022-12-05T22:25:04.300Z,7.00
2022-12-05T22:28:07.422Z,7.00
2022-12-05T22:31:13.172Z,6.90
2022-12-05T22:34:16.547Z,7.00
2022-12-05T22:37:21.043Z,7.00
2022-12-05T22:40:24.179Z,7.00
2022-12-05T22:43:28.890Z,7.10
2022-12-05T22:46:32.070Z,7.10
2022-12-05T22:49:35.211Z,7.10
2022-12-05T22:52:40.400Z,7.10
2022-12-05T22:55:43.593Z,7.20
2022-12-05T22:58:48.291Z,7.20
2022-12-05T23:01:51.389Z,7.20
2022-12-05T23:04:54.477Z,7.20
2022-12-05T23:07:59.068Z,7.30
2022-12-05T23:11:03.351Z,7.30
2022-12-05T23:14:06.480Z,7.30
2022-12-05T23:17:09.567Z,7.30
2022-12-05T23:20:12.862Z,7.30
2022-12-05T23:23:17.318Z,7.30
2022-12-05T23:26:22.118Z,7.30
2022-12-05T23:29:25.212Z,7.30
2022-12-05T23:32:28.507Z,7.30
2022-12-05T23:35:31.663Z,7.20
2022-12-05T23:38:36.744Z,7.20
2022-12-05T23:41:39.939Z,7.10
2022-12-05T23:44:43.115Z,7.10
2022-12-05T23:47:46.205Z,7.00
2022-12-05T23:50:58.904Z,7.00
2022-12-05T23:54:04.135Z,6.90
2022-12-05T23:57:07.322Z,6.90
